Airfield :
LOGIN :

Register | Disclaimer

   EN    FR    IT 

 










Legend :    VFR   Marginal VFR   IFR   Intensive IFR   Very Intensive IFR
Visi :
Ceiling :
>= 8 km
>= 3000ft
5 to 8 km
1000 to 3000 ft
1500m to 5 km
500 to 1000 ft
800 to 1500m
200 to 500 ft
< 800m
< 200 ft
Symbols :   Thunderstorms  Fog  Heavy snow  Heavy precipitations  Wind > 20 kt
SIGMETs :     Misc.  Thunderstorms  Icing  Turbulence  Mountain Waves  Volcanic Ashes






- Airport Elevation : 527 ft
- IATA code : DBV


LDDU - Dubrovnik

CURRENT METAR :
  • 081000Z 19013KT 150V220 9999 FEW006 SCT013 BKN020 15/13 Q1012 TEMPO TSRA FEW020CB BKN030

EXPIRED METARs :
  • 080930Z 17009KT 140V210 9999 FEW006 SCT013 BKN020 15/13 Q1012 TEMPO TSRA FEW020CB BKN030
  • 080900Z 14006KT 060V190 9999 VCTS FEW008 SCT013 FEW020CB 15/13 Q1012 TEMPO TSRA FEW020CB BKN030
  • 080830Z 11004KT 060V150 9999 -RA FEW008 SCT013 BKN030 13/11 Q1012 NOSIG
  • 080800Z 09006KT 060V120 9999 FEW010 SCT020 BKN030 12/11 Q1012 NOSIG
  • 080730Z 10010KT 070V130 9999 FEW010 SCT020 BKN033 12/11 Q1012 NOSIG

TAF TAF LDDU
Valid from the 08 at 06:00 until the 09 at 06:00 UTC


080525Z 0806/0906 11009KT 9999 SCT015 BKN040 TX15/0812Z TN12/0806Z
PROB30
TEMPO 0808/0906 TSRA BKN015 FEW020CB
PROB40
TEMPO 0811/0818 4000 TSRA SCT020CB SCT025



MET'MAP, your aeronautical weather chart ! - Copyright ORBIFLY December 2007 - Disclaimer

ORBIFLY MET'MAP TEAM :

Programming & Development : Alexandra Zaïnal
Original concept : Baudouin d'Aumeries
Technical & hardware support : Manuel Goepfert
Assistance : Marc-Olivier Méhu




SOURCES & CREDITS :

   NOAA